createdAt,value
2019-04-30T00:00:34.772Z,92.34
2019-04-30T00:01:33.566Z,92.75
2019-04-30T00:02:38.389Z,91.63
2019-04-30T00:03:35.255Z,92.55
2019-04-30T00:04:37.643Z,92.65
2019-04-30T00:05:35.255Z,93.06
2019-04-30T00:06:34.670Z,92.55
2019-04-30T00:07:33.473Z,92.34
2019-04-30T00:08:35.481Z,92.59
2019-04-30T00:09:35.127Z,93.06
2019-04-30T00:10:36.881Z,93.47
2019-04-30T00:11:33.425Z,93.10
2019-04-30T00:12:35.930Z,93.06
2019-04-30T00:13:33.423Z,92.69
2019-04-30T00:14:37.617Z,93.37
2019-04-30T00:15:35.584Z,92.90
2019-04-30T00:16:37.516Z,92.96
2019-04-30T00:17:33.358Z,93.16
2019-04-30T00:18:37.911Z,92.38
2019-04-30T00:19:33.337Z,92.44
2019-04-30T00:20:37.259Z,92.14
2019-04-30T00:21:33.323Z,91.93
2019-04-30T00:22:34.310Z,92.14
2019-04-30T00:23:33.319Z,92.14
2019-04-30T00:24:32.310Z,92.03
2019-04-30T00:25:32.298Z,91.67
2019-04-30T00:26:32.313Z,92.03
2019-04-30T00:27:32.258Z,91.52
2019-04-30T00:28:32.262Z,91.97
2019-04-30T00:29:32.234Z,91.77
2019-04-30T00:30:32.216Z,92.55
2019-04-30T00:31:32.214Z,91.97
2019-04-30T00:32:32.219Z,91.67
2019-04-30T00:33:32.222Z,92.69
2019-04-30T00:34:37.889Z,90.75
2019-04-30T00:35:33.186Z,90.84
2019-04-30T00:36:34.007Z,91.36
2019-04-30T00:37:32.177Z,91.56
2019-04-30T00:38:34.350Z,91.97
2019-04-30T00:39:33.141Z,91.97
2019-04-30T00:40:32.147Z,91.46
2019-04-30T00:41:32.119Z,91.87
2019-04-30T00:42:32.091Z,91.67
2019-04-30T00:43:32.272Z,91.67
2019-04-30T00:44:32.100Z,91.93
2019-04-30T00:45:32.078Z,92.90
2019-04-30T00:46:32.071Z,91.16
2019-04-30T00:47:32.086Z,90.84
2019-04-30T00:48:32.064Z,90.95
2019-04-30T00:49:32.106Z,91.87
2019-04-30T00:50:33.948Z,91.46
2019-04-30T00:51:32.996Z,91.56
2019-04-30T00:52:33.958Z,91.56
2019-04-30T00:53:31.970Z,92.08
2019-04-30T00:54:31.978Z,91.67
2019-04-30T00:55:31.975Z,91.56
2019-04-30T00:56:31.939Z,90.44
2019-04-30T00:57:31.931Z,90.64
2019-04-30T00:58:31.926Z,91.46
2019-04-30T00:59:31.924Z,91.46
2019-04-30T01:00:31.896Z,91.26
2019-04-30T01:01:31.904Z,91.73
2019-04-30T01:02:32.355Z,90.95
2019-04-30T01:03:31.872Z,91.01
2019-04-30T01:04:31.879Z,90.70
2019-04-30T01:05:31.843Z,91.01
2019-04-30T01:06:31.833Z,90.75
2019-04-30T01:07:31.815Z,92.18
2019-04-30T01:08:31.834Z,92.55
2019-04-30T01:09:31.829Z,91.36
2019-04-30T01:10:31.843Z,91.87
2019-04-30T01:11:31.773Z,91.05
2019-04-30T01:12:36.389Z,90.84
2019-04-30T01:13:32.755Z,91.05
2019-04-30T01:14:32.145Z,91.36
2019-04-30T01:15:31.741Z,91.31
2019-04-30T01:16:33.180Z,91.56
2019-04-30T01:17:31.713Z,91.16
2019-04-30T01:18:32.146Z,90.84
2019-04-30T01:19:32.842Z,90.84
2019-04-30T01:20:32.879Z,91.05
2019-04-30T01:21:31.666Z,90.84
2019-04-30T01:22:32.894Z,90.84
2019-04-30T01:23:31.678Z,91.87
2019-04-30T01:24:31.848Z,92.38
2019-04-30T01:25:31.660Z,92.49
2019-04-30T01:26:31.612Z,91.56
2019-04-30T01:27:31.612Z,91.97
2019-04-30T01:28:31.597Z,91.67
2019-04-30T01:29:38.149Z,92.08
2019-04-30T01:30:32.599Z,92.90
2019-04-30T01:31:37.233Z,92.69
2019-04-30T01:32:32.548Z,92.28
2019-04-30T01:33:34.599Z,91.87
2019-04-30T01:34:31.527Z,92.28
2019-04-30T01:35:32.861Z,92.49
2019-04-30T01:36:31.525Z,92.18
2019-04-30T01:37:32.829Z,92.49
2019-04-30T01:38:31.492Z,92.59
2019-04-30T01:39:31.698Z,92.79
2019-04-30T01:40:31.459Z,92.90
2019-04-30T01:41:31.559Z,91.97
2019-04-30T01:42:31.448Z,92.03
2019-04-30T01:43:34.530Z,92.08
2019-04-30T01:44:31.426Z,91.56
2019-04-30T01:45:31.787Z,92.18
2019-04-30T01:46:31.459Z,92.38
2019-04-30T01:47:31.491Z,91.56
2019-04-30T01:48:31.401Z,92.38
2019-04-30T01:49:41.748Z,92.59
2019-04-30T01:50:33.843Z,92.49
2019-04-30T01:51:32.369Z,92.49
2019-04-30T01:52:35.139Z,91.97
2019-04-30T01:53:31.332Z,92.38
2019-04-30T01:54:31.342Z,92.59
2019-04-30T01:55:31.305Z,92.90
2019-04-30T01:56:31.328Z,92.79
2019-04-30T01:57:31.284Z,91.87
2019-04-30T01:58:33.402Z,91.56
2019-04-30T01:59:31.285Z,91.56
2019-04-30T02:00:31.272Z,91.87
2019-04-30T02:01:31.335Z,91.16
2019-04-30T02:02:31.232Z,91.05
2019-04-30T02:03:31.219Z,91.87
2019-04-30T02:04:31.504Z,92.08
2019-04-30T02:05:31.229Z,91.87
2019-04-30T02:06:31.207Z,92.38
2019-04-30T02:07:31.221Z,91.56
2019-04-30T02:08:31.162Z,92.28
2019-04-30T02:09:31.146Z,92.49
2019-04-30T02:10:31.158Z,92.28
2019-04-30T02:11:31.165Z,92.59
2019-04-30T02:12:31.154Z,92.08
2019-04-30T02:13:34.290Z,91.87
2019-04-30T02:14:31.101Z,91.87
2019-04-30T02:15:31.080Z,92.49
2019-04-30T02:16:31.090Z,92.49
2019-04-30T02:17:31.092Z,92.59
2019-04-30T02:18:31.046Z,92.18
2019-04-30T02:19:31.249Z,91.67
2019-04-30T02:20:31.029Z,91.87
2019-04-30T02:21:33.319Z,91.67
2019-04-30T02:22:31.189Z,91.87
2019-04-30T02:23:31.011Z,90.84
2019-04-30T02:24:31.003Z,91.36
2019-04-30T02:25:30.975Z,90.95
2019-04-30T02:26:30.982Z,90.75
2019-04-30T02:27:30.958Z,91.56
2019-04-30T02:28:30.956Z,91.71
2019-04-30T02:29:30.929Z,92.18
2019-04-30T02:30:31.227Z,91.30
2019-04-30T02:31:31.111Z,91.26
2019-04-30T02:32:30.936Z,90.99
2019-04-30T02:33:30.943Z,90.69
2019-04-30T02:34:30.887Z,90.99
2019-04-30T02:35:30.863Z,92.02
2019-04-30T02:36:30.878Z,92.28
2019-04-30T02:37:30.847Z,93.00
2019-04-30T02:38:30.833Z,91.61
2019-04-30T02:39:30.839Z,91.67
2019-04-30T02:40:30.816Z,91.61
2019-04-30T02:41:30.825Z,90.99
2019-04-30T02:42:30.790Z,91.61
2019-04-30T02:43:30.777Z,91.91
2019-04-30T02:44:30.769Z,92.38
2019-04-30T02:45:30.804Z,92.63
2019-04-30T02:46:32.359Z,92.02
2019-04-30T02:47:30.735Z,91.91
2019-04-30T02:48:30.718Z,92.74
2019-04-30T02:49:30.713Z,91.91
2019-04-30T02:50:30.701Z,90.99
2019-04-30T02:51:30.739Z,91.30
2019-04-30T02:52:30.707Z,91.20
2019-04-30T02:53:30.679Z,91.67
2019-04-30T02:54:30.674Z,91.87
2019-04-30T02:55:30.647Z,92.22
2019-04-30T02:56:30.651Z,91.97
2019-04-30T02:57:30.662Z,90.37
2019-04-30T02:58:30.624Z,91.09
2019-04-30T02:59:30.608Z,91.50
2019-04-30T03:00:32.903Z,91.50
2019-04-30T03:01:30.746Z,91.56
2019-04-30T03:02:30.583Z,92.43
2019-04-30T03:03:30.570Z,92.83
2019-04-30T03:04:30.555Z,92.43
2019-04-30T03:05:31.091Z,93.25
2019-04-30T03:06:30.700Z,93.45
2019-04-30T03:07:30.558Z,92.83
2019-04-30T03:08:30.538Z,92.43
2019-04-30T03:09:30.499Z,92.83
2019-04-30T03:10:30.496Z,92.74
2019-04-30T03:11:30.549Z,93.86
2019-04-30T03:12:33.609Z,92.63
2019-04-30T03:13:30.480Z,92.22
2019-04-30T03:14:30.462Z,93.19
2019-04-30T03:15:30.452Z,93.04
2019-04-30T03:16:30.468Z,93.08
2019-04-30T03:17:30.419Z,93.49
2019-04-30T03:18:30.405Z,93.76
2019-04-30T03:19:30.406Z,93.76
2019-04-30T03:20:35.704Z,93.96
2019-04-30T03:21:32.000Z,93.80
2019-04-30T03:22:30.386Z,93.96
2019-04-30T03:23:30.396Z,94.11
2019-04-30T03:24:30.339Z,93.86
2019-04-30T03:25:30.327Z,94.07
2019-04-30T03:26:30.313Z,93.45
2019-04-30T03:27:30.380Z,93.96
2019-04-30T03:28:30.350Z,93.45
2019-04-30T03:29:30.574Z,93.70
2019-04-30T03:30:32.040Z,93.49
2019-04-30T03:31:32.448Z,93.25
2019-04-30T03:32:31.791Z,93.49
2019-04-30T03:33:32.667Z,93.76
2019-04-30T03:34:32.725Z,92.78
2019-04-30T03:35:32.188Z,92.68
2019-04-30T03:36:32.651Z,92.53
2019-04-30T03:37:30.220Z,93.15
2019-04-30T03:38:30.229Z,92.53
2019-04-30T03:39:33.629Z,92.78
2019-04-30T03:40:30.310Z,92.74
2019-04-30T03:41:33.406Z,92.74
2019-04-30T03:42:30.169Z,93.35
2019-04-30T03:43:30.327Z,93.55
2019-04-30T03:44:32.482Z,92.78
2019-04-30T03:45:30.272Z,92.57
2019-04-30T03:46:30.130Z,93.49
2019-04-30T03:47:30.312Z,93.49
2019-04-30T03:48:30.085Z,94.01
2019-04-30T03:49:30.098Z,93.60
2019-04-30T03:50:48.143Z,93.08
2019-04-30T03:51:31.109Z,93.45
2019-04-30T03:52:30.033Z,93.90
2019-04-30T03:53:30.064Z,93.55
2019-04-30T03:54:30.020Z,93.80
2019-04-30T03:55:30.166Z,93.15
2019-04-30T03:56:30.108Z,93.35
2019-04-30T03:57:30.394Z,93.29
2019-04-30T03:58:29.988Z,93.80
2019-04-30T03:59:30.400Z,93.76
2019-04-30T04:00:30.062Z,93.39
2019-04-30T04:01:29.967Z,93.55
2019-04-30T04:02:30.314Z,93.66
2019-04-30T04:03:29.916Z,93.15
2019-04-30T04:04:30.973Z,92.63
2019-04-30T04:05:30.056Z,93.19
2019-04-30T04:06:29.925Z,93.49
2019-04-30T04:07:30.195Z,93.76
2019-04-30T04:08:29.873Z,93.76
2019-04-30T04:09:30.189Z,93.96
2019-04-30T04:10:29.901Z,94.32
2019-04-30T04:11:30.010Z,94.17
2019-04-30T04:12:30.616Z,93.35
2019-04-30T04:13:33.014Z,93.49
2019-04-30T04:14:29.809Z,93.39
2019-04-30T04:15:30.045Z,93.04
2019-04-30T04:16:32.238Z,92.63
2019-04-30T04:17:31.450Z,93.49
2019-04-30T04:18:30.248Z,93.45
2019-04-30T04:19:29.740Z,93.76
2019-04-30T04:20:29.967Z,93.76
2019-04-30T04:21:30.047Z,93.39
2019-04-30T04:22:30.649Z,93.35
2019-04-30T04:23:32.771Z,93.49
2019-04-30T04:24:30.229Z,93.25
2019-04-30T04:25:30.046Z,92.32
2019-04-30T04:26:29.983Z,92.88
2019-04-30T04:27:30.420Z,93.76
2019-04-30T04:28:30.026Z,93.55
2019-04-30T04:29:29.973Z,93.35
2019-04-30T04:30:29.985Z,93.35
2019-04-30T04:31:29.985Z,93.25
2019-04-30T04:32:30.847Z,93.45
2019-04-30T04:33:29.809Z,93.55
2019-04-30T04:34:30.289Z,92.53
2019-04-30T04:35:30.178Z,92.63
2019-04-30T04:36:30.149Z,92.43
2019-04-30T04:37:30.357Z,92.63
2019-04-30T04:38:30.349Z,92.69
2019-04-30T04:39:29.818Z,92.43
2019-04-30T04:40:30.217Z,92.74
2019-04-30T04:41:29.755Z,92.83
2019-04-30T04:42:32.887Z,92.63
2019-04-30T04:43:30.064Z,92.94
2019-04-30T04:44:29.615Z,92.94
2019-04-30T04:45:30.529Z,92.94
2019-04-30T04:46:30.799Z,93.25
2019-04-30T04:47:30.868Z,93.15
2019-04-30T04:48:29.918Z,92.94
2019-04-30T04:49:30.562Z,92.63
2019-04-30T04:50:30.231Z,92.63
2019-04-30T04:51:38.116Z,92.74
2019-04-30T04:52:31.415Z,92.53
2019-04-30T04:53:30.469Z,92.63
2019-04-30T04:54:30.026Z,92.53
2019-04-30T04:55:30.028Z,92.43
2019-04-30T04:56:30.432Z,92.28
2019-04-30T04:57:30.312Z,92.53
2019-04-30T04:58:30.263Z,92.74
2019-04-30T04:59:29.801Z,92.90
2019-04-30T05:00:29.552Z,92.90
2019-04-30T05:01:29.294Z,93.00
2019-04-30T05:02:32.391Z,93.20
2019-04-30T05:03:29.819Z,93.20
2019-04-30T05:04:29.874Z,92.90
2019-04-30T05:05:29.901Z,93.00
2019-04-30T05:06:29.835Z,92.49
2019-04-30T05:07:29.256Z,93.10
2019-04-30T05:08:29.217Z,92.79
2019-04-30T05:09:29.245Z,92.69
2019-04-30T05:10:29.270Z,92.49
2019-04-30T05:11:31.576Z,92.69
2019-04-30T05:12:29.773Z,93.41
2019-04-30T05:13:29.217Z,93.62
2019-04-30T05:14:29.149Z,92.90
2019-04-30T05:15:29.599Z,93.10
2019-04-30T05:16:29.127Z,93.10
2019-04-30T05:17:29.714Z,92.03
2019-04-30T05:18:29.264Z,92.55
2019-04-30T05:19:29.094Z,92.55
2019-04-30T05:20:29.322Z,92.44
2019-04-30T05:21:41.426Z,92.55
2019-04-30T05:22:30.079Z,92.85
2019-04-30T05:23:29.856Z,92.75
2019-04-30T05:24:29.052Z,92.24
2019-04-30T05:25:29.609Z,92.65
2019-04-30T05:26:29.028Z,92.50
2019-04-30T05:27:30.317Z,92.30
2019-04-30T05:28:30.094Z,92.03
2019-04-30T05:29:29.047Z,91.07
2019-04-30T05:30:29.530Z,91.38
2019-04-30T05:31:29.088Z,90.86
2019-04-30T05:32:29.290Z,91.48
2019-04-30T05:33:28.962Z,90.97
2019-04-30T05:34:28.971Z,90.77
2019-04-30T05:35:31.093Z,90.92
2019-04-30T05:36:29.311Z,90.92
2019-04-30T05:37:28.894Z,90.72
2019-04-30T05:38:31.229Z,90.41
2019-04-30T05:39:28.882Z,90.62
2019-04-30T05:40:28.868Z,90.62
2019-04-30T05:41:29.071Z,90.21
2019-04-30T05:42:28.869Z,90.72
2019-04-30T05:43:29.094Z,90.11
2019-04-30T05:44:29.875Z,89.92
2019-04-30T05:45:29.109Z,88.79
2019-04-30T05:46:29.888Z,89.31
2019-04-30T05:47:29.222Z,89.00
2019-04-30T05:48:28.844Z,88.55
2019-04-30T05:49:28.839Z,87.84
2019-04-30T05:50:29.619Z,87.84
2019-04-30T05:51:29.004Z,87.38
2019-04-30T05:52:29.522Z,87.29
2019-04-30T05:53:28.897Z,87.18
2019-04-30T05:54:29.210Z,86.22
2019-04-30T05:55:29.482Z,86.12
2019-04-30T05:56:30.373Z,86.43
2019-04-30T05:57:29.470Z,85.82
2019-04-30T05:58:30.013Z,85.61
2019-04-30T05:59:29.045Z,85.71
2019-04-30T06:00:30.482Z,86.12
2019-04-30T06:01:29.546Z,85.92
2019-04-30T06:02:33.571Z,86.22
2019-04-30T06:03:33.078Z,85.71
2019-04-30T06:04:29.399Z,85.82
2019-04-30T06:05:28.709Z,85.30
2019-04-30T06:06:29.027Z,85.41
2019-04-30T06:07:29.909Z,85.27
2019-04-30T06:08:29.214Z,84.86
2019-04-30T06:09:31.593Z,82.42
2019-04-30T06:10:29.596Z,78.64
2019-04-30T06:11:29.260Z,76.37
2019-04-30T06:12:28.537Z,77.19
2019-04-30T06:13:28.760Z,75.02
2019-04-30T06:14:28.731Z,74.14
2019-04-30T06:15:29.112Z,72.78
2019-04-30T06:16:29.813Z,71.00
2019-04-30T06:17:29.398Z,72.69
2019-04-30T06:18:28.782Z,73.43
2019-04-30T06:19:29.262Z,73.67
2019-04-30T06:20:28.827Z,74.48
2019-04-30T06:21:29.502Z,74.07
2019-04-30T06:22:28.881Z,73.90
2019-04-30T06:23:29.373Z,73.02
2019-04-30T06:24:30.207Z,74.21
2019-04-30T06:25:37.332Z,72.99
2019-04-30T06:26:29.608Z,72.65
2019-04-30T06:27:29.125Z,71.70
2019-04-30T06:28:29.255Z,70.62
2019-04-30T06:29:29.035Z,70.59
2019-04-30T06:30:29.687Z,71.30
2019-04-30T06:31:34.275Z,72.72
2019-04-30T06:32:29.585Z,73.13
2019-04-30T06:33:29.116Z,73.83
2019-04-30T06:34:29.461Z,73.16
2019-04-30T06:35:29.371Z,74.18
2019-04-30T06:36:28.609Z,74.21
2019-04-30T06:37:28.854Z,75.02
2019-04-30T06:38:29.159Z,74.99
2019-04-30T06:39:28.832Z,74.14
2019-04-30T06:40:29.279Z,73.39
2019-04-30T06:41:29.593Z,72.99
2019-04-30T06:42:29.332Z,72.38
2019-04-30T06:43:28.757Z,70.76
2019-04-30T06:44:37.041Z,71.06
2019-04-30T06:45:29.197Z,69.84
2019-04-30T06:46:28.641Z,69.54
2019-04-30T06:47:33.251Z,68.77
2019-04-30T06:48:29.533Z,68.63
2019-04-30T06:49:28.892Z,66.24
2019-04-30T06:50:29.297Z,65.71
2019-04-30T06:51:30.544Z,65.01
2019-04-30T06:52:29.324Z,62.96
2019-04-30T06:53:29.229Z,63.45
2019-04-30T06:54:28.746Z,64.73
2019-04-30T06:55:30.658Z,63.58
2019-04-30T06:56:28.927Z,63.35
2019-04-30T06:57:29.495Z,64.76
2019-04-30T06:58:29.170Z,64.73
2019-04-30T06:59:29.887Z,64.73
2019-04-30T07:00:35.071Z,63.29
2019-04-30T07:01:29.193Z,62.11
2019-04-30T07:02:30.667Z,63.85
2019-04-30T07:03:29.066Z,64.56
2019-04-30T07:04:29.301Z,62.88
2019-04-30T07:05:28.583Z,60.31
2019-04-30T07:06:32.321Z,59.04
2019-04-30T07:07:37.009Z,61.35
2019-04-30T07:08:38.141Z,62.16
2019-04-30T07:09:33.523Z,65.06
2019-04-30T07:10:29.447Z,66.27
2019-04-30T07:11:29.288Z,64.58
2019-04-30T07:12:30.403Z,65.56
2019-04-30T07:13:29.644Z,64.93
2019-04-30T07:14:29.246Z,62.47
2019-04-30T07:15:29.611Z,63.47
2019-04-30T07:16:29.678Z,64.88
2019-04-30T07:17:29.234Z,65.82
2019-04-30T07:18:28.859Z,67.03
2019-04-30T07:19:32.899Z,67.27
2019-04-30T07:20:29.249Z,66.43
2019-04-30T07:21:31.233Z,66.86
2019-04-30T07:22:39.454Z,67.07
2019-04-30T07:23:28.800Z,67.14
2019-04-30T07:24:29.545Z,67.51
2019-04-30T07:25:29.327Z,67.92
2019-04-30T07:26:28.957Z,67.82
2019-04-30T07:27:30.128Z,67.79
2019-04-30T07:28:43.732Z,66.10
2019-04-30T07:29:29.580Z,65.56
2019-04-30T07:30:30.700Z,63.25
2019-04-30T07:31:29.502Z,62.15
2019-04-30T07:32:28.794Z,60.81
2019-04-30T07:33:29.419Z,61.35
2019-04-30T07:34:30.296Z,61.32
2019-04-30T07:35:29.270Z,61.52
2019-04-30T07:36:43.281Z,61.77
2019-04-30T07:37:29.373Z,61.68
2019-04-30T07:38:29.468Z,62.60
2019-04-30T07:39:29.275Z,64.31
2019-04-30T07:40:29.240Z,65.45
2019-04-30T07:41:30.802Z,65.89
2019-04-30T07:42:29.455Z,66.40
2019-04-30T07:43:28.928Z,65.86
2019-04-30T07:44:35.502Z,64.69
2019-04-30T07:45:31.598Z,64.22
2019-04-30T07:46:29.781Z,63.07
2019-04-30T07:47:29.576Z,63.58
2019-04-30T07:48:29.699Z,61.07
2019-04-30T07:49:46.486Z,58.94
2019-04-30T07:50:31.329Z,56.70
2019-04-30T07:51:30.888Z,58.85
2019-04-30T07:52:33.272Z,61.17
2019-04-30T07:53:30.788Z,57.55
2019-04-30T07:54:27.412Z,55.88
2019-04-30T07:55:29.507Z,56.44
2019-04-30T07:56:29.265Z,57.48
2019-04-30T07:57:29.254Z,58.92
2019-04-30T07:58:29.878Z,56.21
2019-04-30T07:59:30.048Z,51.54
2019-04-30T08:00:31.021Z,50.99
2019-04-30T08:01:29.039Z,48.64
2019-04-30T08:02:29.677Z,48.42
2019-04-30T08:03:29.991Z,49.46
2019-04-30T08:04:29.278Z,50.98
2019-04-30T08:05:29.729Z,51.91
2019-04-30T08:06:27.342Z,53.67
2019-04-30T08:07:29.538Z,55.11
2019-04-30T08:08:27.285Z,53.14
2019-04-30T08:09:36.606Z,51.14
2019-04-30T08:10:29.695Z,46.23
2019-04-30T08:11:29.199Z,44.25
2019-04-30T08:12:31.851Z,48.16
2019-04-30T08:13:31.907Z,47.81
2019-04-30T08:14:28.798Z,46.72
2019-04-30T08:15:27.196Z,46.55
2019-04-30T08:16:28.757Z,45.61
2019-04-30T08:17:28.930Z,46.41
2019-04-30T08:18:27.164Z,45.63
2019-04-30T08:19:28.696Z,44.82
2019-04-30T08:20:27.155Z,41.14
2019-04-30T08:21:28.803Z,39.79
2019-04-30T08:22:27.172Z,38.90
2019-04-30T08:23:36.318Z,37.30
2019-04-30T08:24:29.185Z,41.74
2019-04-30T08:25:29.068Z,41.85
2019-04-30T08:26:28.649Z,43.25
2019-04-30T08:27:29.483Z,46.98
2019-04-30T08:28:30.160Z,48.05
2019-04-30T08:29:27.081Z,51.66
2019-04-30T08:30:29.758Z,52.69
2019-04-30T08:31:29.077Z,51.86
2019-04-30T08:32:29.013Z,47.24
2019-04-30T08:33:29.053Z,44.89
2019-04-30T08:34:29.118Z,45.13
2019-04-30T08:35:26.988Z,47.15
2019-04-30T08:36:26.985Z,43.11
2019-04-30T08:37:28.704Z,39.83
2019-04-30T08:38:26.977Z,43.09
2019-04-30T08:39:26.950Z,45.94
2019-04-30T08:40:26.943Z,47.11
2019-04-30T08:41:26.930Z,51.99
2019-04-30T08:42:31.629Z,53.34
2019-04-30T08:43:29.235Z,54.99
2019-04-30T08:44:26.919Z,55.59
2019-04-30T08:45:26.905Z,54.55
2019-04-30T08:46:28.578Z,51.31
2019-04-30T08:47:28.961Z,47.39
2019-04-30T08:48:41.680Z,43.30
2019-04-30T08:49:30.121Z,37.59
2019-04-30T08:50:26.837Z,38.20
2019-04-30T08:51:30.476Z,36.57
2019-04-30T08:52:26.835Z,38.86
2019-04-30T08:53:30.637Z,39.98
2019-04-30T08:54:29.481Z,43.38
2019-04-30T08:55:26.782Z,42.21
2019-04-30T08:56:26.789Z,42.35
2019-04-30T08:57:26.765Z,43.01
2019-04-30T08:58:29.031Z,43.87
2019-04-30T08:59:26.744Z,42.35
2019-04-30T09:00:26.735Z,42.38
2019-04-30T09:01:26.746Z,45.18
2019-04-30T09:02:26.713Z,46.49
2019-04-30T09:03:26.726Z,46.30
2019-04-30T09:04:28.948Z,45.67
2019-04-30T09:05:28.696Z,40.80
2019-04-30T09:06:28.712Z,38.67
2019-04-30T09:07:26.665Z,38.64
2019-04-30T09:08:26.675Z,39.68
2019-04-30T09:09:26.662Z,39.52
2019-04-30T09:10:26.634Z,39.86
2019-04-30T09:11:32.151Z,37.56
2019-04-30T09:12:27.616Z,37.17
2019-04-30T09:13:28.522Z,35.17
2019-04-30T09:14:26.617Z,34.94
2019-04-30T09:15:26.588Z,35.86
2019-04-30T09:16:26.597Z,35.73
2019-04-30T09:17:26.588Z,35.09
2019-04-30T09:18:26.553Z,34.39
2019-04-30T09:19:26.566Z,33.36
2019-04-30T09:20:26.560Z,34.69
2019-04-30T09:21:26.551Z,35.13
2019-04-30T09:22:26.540Z,35.04
2019-04-30T09:23:34.321Z,30.86
2019-04-30T09:24:30.674Z,31.52
2019-04-30T09:25:28.537Z,31.31
2019-04-30T09:26:26.480Z,32.77
2019-04-30T09:27:26.538Z,32.70
2019-04-30T09:28:26.458Z,34.05
2019-04-30T09:29:26.446Z,32.77
2019-04-30T09:30:26.440Z,33.16
2019-04-30T09:31:26.443Z,35.13
2019-04-30T09:32:26.438Z,38.74
2019-04-30T09:33:26.459Z,42.74
2019-04-30T09:34:26.410Z,42.61
2019-04-30T09:35:26.390Z,40.58
2019-04-30T09:36:26.396Z,40.40
2019-04-30T09:37:26.390Z,40.71
2019-04-30T09:38:26.395Z,42.63
2019-04-30T09:39:26.362Z,39.03
2019-04-30T09:40:26.396Z,36.28
2019-04-30T09:41:26.362Z,33.61
2019-04-30T09:42:26.325Z,30.88
2019-04-30T09:43:26.351Z,31.79
2019-04-30T09:44:26.307Z,31.02
2019-04-30T09:45:26.296Z,32.29
2019-04-30T09:46:27.360Z,31.68
2019-04-30T09:47:26.282Z,32.13
2019-04-30T09:48:26.315Z,32.55
2019-04-30T09:49:26.274Z,34.55
2019-04-30T09:50:26.247Z,36.27
2019-04-30T09:51:26.569Z,41.01
2019-04-30T09:52:26.298Z,45.21
2019-04-30T09:53:26.279Z,46.64
2019-04-30T09:54:26.225Z,43.91
2019-04-30T09:55:26.203Z,38.47
2019-04-30T09:56:26.254Z,35.29
2019-04-30T09:57:26.182Z,32.50
2019-04-30T09:58:26.214Z,30.35
2019-04-30T09:59:26.156Z,30.72
2019-04-30T10:00:26.148Z,30.20
2019-04-30T10:01:26.173Z,32.54
2019-04-30T10:02:26.317Z,29.96
2019-04-30T10:03:26.385Z,31.44
2019-04-30T10:04:26.551Z,31.17
2019-04-30T10:05:26.227Z,29.62
2019-04-30T10:06:37.124Z,30.26
2019-04-30T10:07:27.107Z,30.06
2019-04-30T10:08:26.332Z,34.18
2019-04-30T10:09:26.079Z,35.87
2019-04-30T10:10:26.050Z,35.55
2019-04-30T10:11:26.046Z,35.27
2019-04-30T10:12:26.057Z,37.37
2019-04-30T10:13:26.021Z,39.15
2019-04-30T10:14:26.049Z,39.15
2019-04-30T10:15:26.006Z,38.78
2019-04-30T10:16:26.002Z,39.40
2019-04-30T10:17:25.989Z,36.22
2019-04-30T10:18:26.023Z,35.34
2019-04-30T10:19:25.977Z,32.68
2019-04-30T10:20:25.975Z,32.04
2019-04-30T10:21:25.954Z,31.37
2019-04-30T10:22:25.934Z,31.02
2019-04-30T10:23:25.929Z,32.38
2019-04-30T10:24:25.939Z,35.14
2019-04-30T10:25:25.911Z,35.97
2019-04-30T10:26:25.918Z,32.70
2019-04-30T10:27:25.910Z,32.79
2019-04-30T10:28:25.899Z,34.11
2019-04-30T10:29:25.872Z,37.57
2019-04-30T10:30:25.864Z,38.56
2019-04-30T10:31:25.860Z,34.91
2019-04-30T10:32:25.853Z,35.14
2019-04-30T10:33:25.830Z,37.04
2019-04-30T10:34:25.840Z,36.52
2019-04-30T10:35:25.811Z,36.24
2019-04-30T10:36:25.835Z,36.78
2019-04-30T10:37:25.814Z,39.48
2019-04-30T10:38:25.823Z,39.89
2019-04-30T10:39:25.815Z,40.41
2019-04-30T10:40:25.764Z,40.55
2019-04-30T10:41:25.768Z,42.05
2019-04-30T10:42:25.739Z,40.23
2019-04-30T10:43:25.731Z,41.52
2019-04-30T10:44:25.744Z,41.33
2019-04-30T10:45:25.726Z,41.25
2019-04-30T10:46:25.701Z,41.46
2019-04-30T10:47:25.696Z,42.21
2019-04-30T10:48:25.694Z,42.94
2019-04-30T10:49:25.694Z,43.94
2019-04-30T10:50:25.702Z,43.56
2019-04-30T10:51:25.658Z,44.24
2019-04-30T10:52:25.639Z,43.96
2019-04-30T10:53:25.630Z,44.27
2019-04-30T10:54:26.488Z,43.96
2019-04-30T10:55:25.642Z,43.76
2019-04-30T10:56:25.617Z,45.00
2019-04-30T10:57:25.589Z,46.00
2019-04-30T10:58:25.587Z,45.67
2019-04-30T10:59:25.559Z,45.87
2019-04-30T11:00:25.548Z,44.67
2019-04-30T11:01:25.565Z,44.29
2019-04-30T11:02:25.530Z,45.50
2019-04-30T11:03:25.531Z,45.90
2019-04-30T11:04:25.522Z,47.00
2019-04-30T11:05:25.495Z,44.67
2019-04-30T11:06:25.504Z,46.48
2019-04-30T11:07:25.478Z,47.11
2019-04-30T11:08:25.475Z,46.55
2019-04-30T11:09:25.456Z,46.33
2019-04-30T11:10:25.487Z,46.80
2019-04-30T11:11:25.468Z,46.48
2019-04-30T11:12:25.430Z,46.15
2019-04-30T11:13:25.434Z,45.86
2019-04-30T11:14:25.401Z,47.08
2019-04-30T11:15:25.397Z,46.86
2019-04-30T11:16:25.398Z,47.41
2019-04-30T11:17:25.559Z,47.11
2019-04-30T11:18:25.602Z,46.75
2019-04-30T11:19:25.568Z,47.00
2019-04-30T11:20:25.628Z,46.38
2019-04-30T11:21:25.505Z,47.99
2019-04-30T11:22:25.524Z,46.68
2019-04-30T11:23:25.573Z,46.40
2019-04-30T11:24:35.918Z,46.91
2019-04-30T11:25:27.204Z,46.78
2019-04-30T11:26:25.751Z,47.51
2019-04-30T11:27:25.880Z,48.41
2019-04-30T11:28:25.895Z,47.31
2019-04-30T11:29:25.455Z,48.01
2019-04-30T11:30:25.502Z,47.81
2019-04-30T11:31:25.757Z,47.69
2019-04-30T11:32:25.420Z,47.99
2019-04-30T11:33:25.211Z,46.98
2019-04-30T11:34:27.919Z,46.68
2019-04-30T11:35:25.205Z,47.00
2019-04-30T11:36:25.178Z,45.94
2019-04-30T11:37:25.217Z,48.84
2019-04-30T11:38:25.177Z,46.93
2019-04-30T11:39:25.143Z,48.11
2019-04-30T11:40:31.608Z,46.53
2019-04-30T11:41:32.429Z,46.53
2019-04-30T11:42:26.121Z,46.10
2019-04-30T11:43:25.101Z,46.30
2019-04-30T11:44:30.737Z,45.79
2019-04-30T11:45:26.235Z,47.00
2019-04-30T11:46:25.051Z,46.91
2019-04-30T11:47:25.068Z,45.39
2019-04-30T11:48:25.054Z,46.02
2019-04-30T11:49:25.052Z,45.82
2019-04-30T11:50:25.048Z,46.77
2019-04-30T11:51:26.980Z,48.10
2019-04-30T11:52:25.011Z,49.92
2019-04-30T11:53:28.037Z,48.89
2019-04-30T11:54:26.015Z,49.07
2019-04-30T11:55:25.058Z,48.96
2019-04-30T11:56:24.945Z,48.16
2019-04-30T11:57:24.950Z,47.63
2019-04-30T11:58:24.936Z,48.72
2019-04-30T11:59:24.917Z,46.91
2019-04-30T12:00:25.075Z,47.31
2019-04-30T12:01:24.987Z,48.72
2019-04-30T12:02:24.885Z,47.00
2019-04-30T12:03:24.931Z,48.01
2019-04-30T12:04:24.862Z,46.00
2019-04-30T12:05:24.858Z,47.66
2019-04-30T12:06:24.865Z,46.47
2019-04-30T12:07:24.829Z,46.59
2019-04-30T12:08:26.502Z,47.50
2019-04-30T12:09:24.835Z,47.82
2019-04-30T12:10:24.976Z,48.10
2019-04-30T12:11:24.812Z,48.30
2019-04-30T12:12:24.781Z,46.59
2019-04-30T12:13:24.793Z,47.40
2019-04-30T12:14:24.765Z,48.41
2019-04-30T12:15:24.786Z,48.69
2019-04-30T12:16:24.736Z,49.99
2019-04-30T12:17:24.721Z,49.27
2019-04-30T12:18:24.715Z,47.83
2019-04-30T12:19:24.705Z,46.53
2019-04-30T12:20:24.706Z,46.73
2019-04-30T12:21:24.715Z,48.74
2019-04-30T12:22:24.665Z,46.30
2019-04-30T12:23:24.706Z,46.40
2019-04-30T12:24:24.682Z,47.53
2019-04-30T12:25:24.639Z,47.20
2019-04-30T12:26:24.646Z,47.81
2019-04-30T12:27:24.629Z,47.61
2019-04-30T12:28:27.213Z,47.20
2019-04-30T12:29:24.642Z,46.60
2019-04-30T12:30:24.609Z,48.39
2019-04-30T12:31:24.586Z,46.68
2019-04-30T12:32:24.562Z,45.92
2019-04-30T12:33:24.561Z,48.44
2019-04-30T12:34:24.613Z,48.61
2019-04-30T12:35:24.525Z,46.93
2019-04-30T12:36:24.596Z,45.62
2019-04-30T12:37:24.508Z,46.45
2019-04-30T12:38:24.499Z,47.78
2019-04-30T12:39:24.509Z,48.66
2019-04-30T12:40:28.741Z,46.55
2019-04-30T12:41:24.469Z,47.35
2019-04-30T12:42:24.467Z,48.94
2019-04-30T12:43:24.471Z,47.75
2019-04-30T12:44:24.463Z,47.96
2019-04-30T12:45:24.433Z,48.44
2019-04-30T12:46:24.420Z,47.91
2019-04-30T12:47:24.400Z,46.62
2019-04-30T12:48:24.425Z,46.00
2019-04-30T12:49:24.405Z,47.03
2019-04-30T12:50:24.370Z,47.41
2019-04-30T12:51:24.358Z,47.11
2019-04-30T12:52:24.358Z,48.32